sensor_id;sensor_type;location;lat;lon;timestamp;temperature;humidity
52381;DHT22;38310;52.796;6.942;2024-03-07T00:01:30;5.20;99.90
52381;DHT22;38310;52.796;6.942;2024-03-07T00:03:57;5.10;99.90
52381;DHT22;38310;52.796;6.942;2024-03-07T00:06:23;5.10;99.90
52381;DHT22;38310;52.796;6.942;2024-03-07T00:08:49;5.00;99.90
52381;DHT22;38310;52.796;6.942;2024-03-07T00:11:15;5.00;99.90
52381;DHT22;38310;52.796;6.942;2024-03-07T00:13:40;5.00;99.90
52381;DHT22;38310;52.796;6.942;2024-03-07T00:16:08;5.00;99.90
52381;DHT22;38310;52.796;6.942;2024-03-07T00:18:36;4.90;99.90
52381;DHT22;38310;52.796;6.942;2024-03-07T00:21:02;4.90;99.90
52381;DHT22;38310;52.796;6.942;2024-03-07T00:23:28;4.90;99.90
52381;DHT22;38310;52.796;6.942;2024-03-07T00:25:54;4.90;99.90
52381;DHT22;38310;52.796;6.942;2024-03-07T00:28:20;4.80;99.90
52381;DHT22;38310;52.796;6.942;2024-03-07T00:30:45;4.80;99.90
52381;DHT22;38310;52.796;6.942;2024-03-07T00:33:12;5.30;99.90
52381;DHT22;38310;52.796;6.942;2024-03-07T00:35:37;4.80;99.90
52381;DHT22;38310;52.796;6.942;2024-03-07T00:38:03;4.70;99.90
52381;DHT22;38310;52.796;6.942;2024-03-07T00:40:29;4.70;99.90
52381;DHT22;38310;52.796;6.942;2024-03-07T00:42:55;4.90;99.90
52381;DHT22;38310;52.796;6.942;2024-03-07T00:45:21;4.60;99.90
52381;DHT22;38310;52.796;6.942;2024-03-07T00:47:47;4.60;99.90
52381;DHT22;38310;52.796;6.942;2024-03-07T00:50:14;4.70;99.90
52381;DHT22;38310;52.796;6.942;2024-03-07T00:52:40;4.50;99.90
52381;DHT22;38310;52.796;6.942;2024-03-07T00:55:06;4.50;99.90
52381;DHT22;38310;52.796;6.942;2024-03-07T00:57:35;3.40;99.90
52381;DHT22;38310;52.796;6.942;2024-03-07T01:00:02;4.40;99.90
52381;DHT22;38310;52.796;6.942;2024-03-07T01:02:28;4.40;99.90
52381;DHT22;38310;52.796;6.942;2024-03-07T01:04:55;4.30;99.90
52381;DHT22;38310;52.796;6.942;2024-03-07T01:07:21;4.20;99.90
52381;DHT22;38310;52.796;6.942;2024-03-07T01:09:52;4.20;99.90
52381;DHT22;38310;52.796;6.942;2024-03-07T01:12:19;4.20;99.90
52381;DHT22;38310;52.796;6.942;2024-03-07T01:14:48;4.10;99.90
52381;DHT22;38310;52.796;6.942;2024-03-07T01:17:13;4.10;99.90
52381;DHT22;38310;52.796;6.942;2024-03-07T01:19:39;4.10;99.90
52381;DHT22;38310;52.796;6.942;2024-03-07T01:22:05;4.00;99.90
52381;DHT22;38310;52.796;6.942;2024-03-07T01:24:31;4.00;99.90
52381;DHT22;38310;52.796;6.942;2024-03-07T01:26:58;5.40;99.90
52381;DHT22;38310;52.796;6.942;2024-03-07T01:29:25;3.90;99.90
52381;DHT22;38310;52.796;6.942;2024-03-07T01:31:51;3.90;99.90
52381;DHT22;38310;52.796;6.942;2024-03-07T01:34:16;3.90;99.90
52381;DHT22;38310;52.796;6.942;2024-03-07T01:36:42;3.80;99.90
52381;DHT22;38310;52.796;6.942;2024-03-07T01:39:08;4.10;99.90
52381;DHT22;38310;52.796;6.942;2024-03-07T01:41:36;3.80;99.90
52381;DHT22;38310;52.796;6.942;2024-03-07T01:44:01;3.70;99.90
52381;DHT22;38310;52.796;6.942;2024-03-07T01:46:28;3.70;99.90
52381;DHT22;38310;52.796;6.942;2024-03-07T01:48:55;4.80;99.90
52381;DHT22;38310;52.796;6.942;2024-03-07T01:51:21;3.60;99.90
52381;DHT22;38310;52.796;6.942;2024-03-07T01:53:48;3.60;99.90
52381;DHT22;38310;52.796;6.942;2024-03-07T01:56:14;3.50;99.90
52381;DHT22;38310;52.796;6.942;2024-03-07T01:58:41;3.50;99.90
52381;DHT22;38310;52.796;6.942;2024-03-07T02:01:07;3.50;99.90
52381;DHT22;38310;52.796;6.942;2024-03-07T02:03:33;3.50;99.90
52381;DHT22;38310;52.796;6.942;2024-03-07T02:05:59;3.40;99.90
52381;DHT22;38310;52.796;6.942;2024-03-07T02:08:26;3.40;99.90
52381;DHT22;38310;52.796;6.942;2024-03-07T02:10:58;3.30;99.90
52381;DHT22;38310;52.796;6.942;2024-03-07T02:13:24;3.30;99.90
52381;DHT22;38310;52.796;6.942;2024-03-07T02:15:50;3.30;99.90
52381;DHT22;38310;52.796;6.942;2024-03-07T02:18:16;3.30;99.90
52381;DHT22;38310;52.796;6.942;2024-03-07T02:20:46;3.20;99.90
52381;DHT22;38310;52.796;6.942;2024-03-07T02:23:12;3.20;99.90
52381;DHT22;38310;52.796;6.942;2024-03-07T02:25:38;3.30;99.90
52381;DHT22;38310;52.796;6.942;2024-03-07T02:28:06;2.90;99.90
52381;DHT22;38310;52.796;6.942;2024-03-07T02:30:32;3.10;99.90
52381;DHT22;38310;52.796;6.942;2024-03-07T02:32:59;3.10;99.90
52381;DHT22;38310;52.796;6.942;2024-03-07T02:35:33;3.00;99.90
52381;DHT22;38310;52.796;6.942;2024-03-07T02:37:59;3.00;99.90
52381;DHT22;38310;52.796;6.942;2024-03-07T02:40:25;3.00;99.90
52381;DHT22;38310;52.796;6.942;2024-03-07T02:42:51;2.90;99.90
52381;DHT22;38310;52.796;6.942;2024-03-07T02:45:17;2.90;99.90
52381;DHT22;38310;52.796;6.942;2024-03-07T02:47:42;3.10;99.90
52381;DHT22;38310;52.796;6.942;2024-03-07T02:50:10;2.90;99.90
52381;DHT22;38310;52.796;6.942;2024-03-07T02:52:36;2.80;99.90
52381;DHT22;38310;52.796;6.942;2024-03-07T02:55:02;2.80;99.90
52381;DHT22;38310;52.796;6.942;2024-03-07T02:57:31;2.20;99.90
52381;DHT22;38310;52.796;6.942;2024-03-07T02:59:57;3.40;99.90
52381;DHT22;38310;52.796;6.942;2024-03-07T03:02:23;2.70;99.90
52381;DHT22;38310;52.796;6.942;2024-03-07T03:04:48;2.70;99.90
52381;DHT22;38310;52.796;6.942;2024-03-07T03:07:14;2.70;99.90
52381;DHT22;38310;52.796;6.942;2024-03-07T03:09:40;2.60;99.90
52381;DHT22;38310;52.796;6.942;2024-03-07T03:12:12;2.60;99.90
52381;DHT22;38310;52.796;6.942;2024-03-07T03:14:38;2.60;99.90
52381;DHT22;38310;52.796;6.942;2024-03-07T03:17:04;2.60;99.90
52381;DHT22;38310;52.796;6.942;2024-03-07T03:19:29;2.50;99.90
52381;DHT22;38310;52.796;6.942;2024-03-07T03:21:55;2.50;99.90
52381;DHT22;38310;52.796;6.942;2024-03-07T03:24:21;2.50;99.90
52381;DHT22;38310;52.796;6.942;2024-03-07T03:26:47;4.10;99.90
52381;DHT22;38310;52.796;6.942;2024-03-07T03:29:13;2.40;99.90
52381;DHT22;38310;52.796;6.942;2024-03-07T03:31:41;2.40;99.90
52381;DHT22;38310;52.796;6.942;2024-03-07T03:34:07;2.40;99.90
52381;DHT22;38310;52.796;6.942;2024-03-07T03:36:35;2.40;99.90
52381;DHT22;38310;52.796;6.942;2024-03-07T03:39:01;2.30;99.90
52381;DHT22;38310;52.796;6.942;2024-03-07T03:41:27;2.30;99.90
52381;DHT22;38310;52.796;6.942;2024-03-07T03:43:53;2.30;99.90
52381;DHT22;38310;52.796;6.942;2024-03-07T03:46:18;3.70;99.90
52381;DHT22;38310;52.796;6.942;2024-03-07T03:48:44;2.20;99.90
52381;DHT22;38310;52.796;6.942;2024-03-07T03:51:10;2.10;99.90
52381;DHT22;38310;52.796;6.942;2024-03-07T03:53:38;2.30;99.90
52381;DHT22;38310;52.796;6.942;2024-03-07T03:56:04;2.10;99.90
52381;DHT22;38310;52.796;6.942;2024-03-07T03:58:31;2.10;99.90
52381;DHT22;38310;52.796;6.942;2024-03-07T04:00:57;2.40;99.90
52381;DHT22;38310;52.796;6.942;2024-03-07T04:03:26;2.00;99.90
52381;DHT22;38310;52.796;6.942;2024-03-07T04:05:52;2.20;99.90
52381;DHT22;38310;52.796;6.942;2024-03-07T04:08:20;2.00;99.90
52381;DHT22;38310;52.796;6.942;2024-03-07T04:10:46;2.70;99.90
52381;DHT22;38310;52.796;6.942;2024-03-07T04:13:11;1.90;99.90
52381;DHT22;38310;52.796;6.942;2024-03-07T04:15:39;1.90;99.90
52381;DHT22;38310;52.796;6.942;2024-03-07T04:18:04;2.80;99.90
52381;DHT22;38310;52.796;6.942;2024-03-07T04:20:30;1.80;99.90
52381;DHT22;38310;52.796;6.942;2024-03-07T04:22:56;2.00;99.90
52381;DHT22;38310;52.796;6.942;2024-03-07T04:25:22;1.80;99.90
52381;DHT22;38310;52.796;6.942;2024-03-07T04:27:48;1.80;99.90
52381;DHT22;38310;52.796;6.942;2024-03-07T04:30:15;1.70;99.90
52381;DHT22;38310;52.796;6.942;2024-03-07T04:32:42;1.70;99.90
52381;DHT22;38310;52.796;6.942;2024-03-07T04:35:08;1.70;99.90
52381;DHT22;38310;52.796;6.942;2024-03-07T04:37:39;1.60;99.90
52381;DHT22;38310;52.796;6.942;2024-03-07T04:40:07;1.80;99.90
52381;DHT22;38310;52.796;6.942;2024-03-07T04:42:46;1.60;99.90
52381;DHT22;38310;52.796;6.942;2024-03-07T04:45:14;3.30;99.90
52381;DHT22;38310;52.796;6.942;2024-03-07T04:47:41;1.60;99.90
52381;DHT22;38310;52.796;6.942;2024-03-07T04:50:08;1.60;99.90
52381;DHT22;38310;52.796;6.942;2024-03-07T04:52:39;1.60;99.90
52381;DHT22;38310;52.796;6.942;2024-03-07T04:55:06;1.50;99.90
52381;DHT22;38310;52.796;6.942;2024-03-07T04:57:35;1.50;99.90
52381;DHT22;38310;52.796;6.942;2024-03-07T05:00:01;3.10;99.90
52381;DHT22;38310;52.796;6.942;2024-03-07T05:02:27;2.10;99.90
52381;DHT22;38310;52.796;6.942;2024-03-07T05:04:52;1.50;99.90
52381;DHT22;38310;52.796;6.942;2024-03-07T05:07:18;1.50;99.90
52381;DHT22;38310;52.796;6.942;2024-03-07T05:09:44;1.40;99.90
52381;DHT22;38310;52.796;6.942;2024-03-07T05:12:10;1.40;99.90
52381;DHT22;38310;52.796;6.942;2024-03-07T05:14:36;1.40;99.90
52381;DHT22;38310;52.796;6.942;2024-03-07T05:17:02;1.90;99.90
52381;DHT22;38310;52.796;6.942;2024-03-07T05:19:32;1.30;99.90
52381;DHT22;38310;52.796;6.942;2024-03-07T05:22:00;1.30;99.90
52381;DHT22;38310;52.796;6.942;2024-03-07T05:24:26;1.60;99.90
52381;DHT22;38310;52.796;6.942;2024-03-07T05:26:52;1.90;99.90
52381;DHT22;38310;52.796;6.942;2024-03-07T05:29:18;-0.20;99.90
52381;DHT22;38310;52.796;6.942;2024-03-07T05:31:44;1.10;99.90
52381;DHT22;38310;52.796;6.942;2024-03-07T05:34:17;1.10;99.90
52381;DHT22;38310;52.796;6.942;2024-03-07T05:36:49;1.10;99.90
52381;DHT22;38310;52.796;6.942;2024-03-07T05:39:16;1.70;99.90
52381;DHT22;38310;52.796;6.942;2024-03-07T05:41:44;2.50;99.90
52381;DHT22;38310;52.796;6.942;2024-03-07T05:44:13;2.70;99.90
52381;DHT22;38310;52.796;6.942;2024-03-07T05:46:40;-0.40;99.90
52381;DHT22;38310;52.796;6.942;2024-03-07T05:49:10;0.90;99.90
52381;DHT22;38310;52.796;6.942;2024-03-07T05:51:36;0.90;99.90
52381;DHT22;38310;52.796;6.942;2024-03-07T05:54:02;0.90;99.90
52381;DHT22;38310;52.796;6.942;2024-03-07T05:56:35;0.80;99.90
52381;DHT22;38310;52.796;6.942;2024-03-07T05:59:04;1.30;99.90
52381;DHT22;38310;52.796;6.942;2024-03-07T06:01:33;0.70;99.90
52381;DHT22;38310;52.796;6.942;2024-03-07T06:04:00;0.90;99.90
52381;DHT22;38310;52.796;6.942;2024-03-07T06:06:26;1.70;99.90
52381;DHT22;38310;52.796;6.942;2024-03-07T06:08:53;1.10;99.90
52381;DHT22;38310;52.796;6.942;2024-03-07T06:11:19;0.60;99.90
52381;DHT22;38310;52.796;6.942;2024-03-07T06:13:47;-0.50;99.90
52381;DHT22;38310;52.796;6.942;2024-03-07T06:16:13;1.10;99.90
52381;DHT22;38310;52.796;6.942;2024-03-07T06:18:42;1.30;99.90
52381;DHT22;38310;52.796;6.942;2024-03-07T06:21:08;0.40;99.90
52381;DHT22;38310;52.796;6.942;2024-03-07T06:23:34;0.40;99.90
52381;DHT22;38310;52.796;6.942;2024-03-07T06:26:00;0.60;99.90
52381;DHT22;38310;52.796;6.942;2024-03-07T06:28:29;1.00;99.90
52381;DHT22;38310;52.796;6.942;2024-03-07T06:30:55;0.30;99.90
52381;DHT22;38310;52.796;6.942;2024-03-07T06:33:21;0.30;99.90
52381;DHT22;38310;52.796;6.942;2024-03-07T06:35:47;0.80;99.90
52381;DHT22;38310;52.796;6.942;2024-03-07T06:38:13;0.70;99.90
52381;DHT22;38310;52.796;6.942;2024-03-07T06:40:41;0.60;99.90
52381;DHT22;38310;52.796;6.942;2024-03-07T06:43:08;0.40;99.90
52381;DHT22;38310;52.796;6.942;2024-03-07T06:45:38;0.50;99.90
52381;DHT22;38310;52.796;6.942;2024-03-07T06:48:08;0.50;99.90
52381;DHT22;38310;52.796;6.942;2024-03-07T06:50:35;-0.60;99.90
52381;DHT22;38310;52.796;6.942;2024-03-07T06:53:02;1.30;99.90
52381;DHT22;38310;52.796;6.942;2024-03-07T06:55:28;0.60;99.90
52381;DHT22;38310;52.796;6.942;2024-03-07T06:57:55;1.00;99.90
52381;DHT22;38310;52.796;6.942;2024-03-07T07:00:20;0.60;99.90
52381;DHT22;38310;52.796;6.942;2024-03-07T07:02:48;0.70;99.90
52381;DHT22;38310;52.796;6.942;2024-03-07T07:05:18;0.80;99.90
52381;DHT22;38310;52.796;6.942;2024-03-07T07:07:47;0.80;99.90
52381;DHT22;38310;52.796;6.942;2024-03-07T07:10:13;1.40;99.90
52381;DHT22;38310;52.796;6.942;2024-03-07T07:12:47;0.90;99.90
52381;DHT22;38310;52.796;6.942;2024-03-07T07:15:18;0.90;99.90
52381;DHT22;38310;52.796;6.942;2024-03-07T07:17:44;1.00;99.90
52381;DHT22;38310;52.796;6.942;2024-03-07T07:20:13;0.80;99.90
52381;DHT22;38310;52.796;6.942;2024-03-07T07:22:43;1.10;99.90
52381;DHT22;38310;52.796;6.942;2024-03-07T07:25:09;1.20;99.90
52381;DHT22;38310;52.796;6.942;2024-03-07T07:27:48;2.60;99.90
52381;DHT22;38310;52.796;6.942;2024-03-07T07:30:16;1.20;99.90
52381;DHT22;38310;52.796;6.942;2024-03-07T07:32:42;1.90;99.90
52381;DHT22;38310;52.796;6.942;2024-03-07T07:35:09;2.50;99.90
52381;DHT22;38310;52.796;6.942;2024-03-07T07:37:42;1.50;99.90
52381;DHT22;38310;52.796;6.942;2024-03-07T07:40:11;1.50;99.90
52381;DHT22;38310;52.796;6.942;2024-03-07T07:42:46;1.50;99.90
52381;DHT22;38310;52.796;6.942;2024-03-07T07:45:14;1.90;99.90
52381;DHT22;38310;52.796;6.942;2024-03-07T07:47:44;3.30;99.90
52381;DHT22;38310;52.796;6.942;2024-03-07T07:50:15;1.60;99.90
52381;DHT22;38310;52.796;6.942;2024-03-07T07:52:48;1.60;99.90
52381;DHT22;38310;52.796;6.942;2024-03-07T07:55:16;1.60;99.90
52381;DHT22;38310;52.796;6.942;2024-03-07T07:57:48;1.60;99.90
52381;DHT22;38310;52.796;6.942;2024-03-07T08:00:16;1.50;99.90
52381;DHT22;38310;52.796;6.942;2024-03-07T08:02:55;1.60;99.90
52381;DHT22;38310;52.796;6.942;2024-03-07T08:05:29;3.00;99.90
52381;DHT22;38310;52.796;6.942;2024-03-07T08:07:57;1.50;99.90
52381;DHT22;38310;52.796;6.942;2024-03-07T08:10:25;1.50;99.90
52381;DHT22;38310;52.796;6.942;2024-03-07T08:12:56;1.60;99.90
52381;DHT22;38310;52.796;6.942;2024-03-07T08:15:24;1.60;99.90
52381;DHT22;38310;52.796;6.942;2024-03-07T08:17:52;1.60;99.90
52381;DHT22;38310;52.796;6.942;2024-03-07T08:20:19;2.50;99.90
52381;DHT22;38310;52.796;6.942;2024-03-07T08:22:46;1.20;99.90
52381;DHT22;38310;52.796;6.942;2024-03-07T08:25:16;1.60;99.90
52381;DHT22;38310;52.796;6.942;2024-03-07T08:27:44;1.60;99.90
52381;DHT22;38310;52.796;6.942;2024-03-07T08:30:10;2.00;99.90
52381;DHT22;38310;52.796;6.942;2024-03-07T08:32:58;1.60;99.90
52381;DHT22;38310;52.796;6.942;2024-03-07T08:35:30;1.60;99.90
52381;DHT22;38310;52.796;6.942;2024-03-07T08:37:56;1.90;99.90
52381;DHT22;38310;52.796;6.942;2024-03-07T08:40:24;1.50;99.90
52381;DHT22;38310;52.796;6.942;2024-03-07T08:42:52;1.70;99.90
52381;DHT22;38310;52.796;6.942;2024-03-07T08:45:19;1.50;99.90
52381;DHT22;38310;52.796;6.942;2024-03-07T08:47:47;1.50;99.90
52381;DHT22;38310;52.796;6.942;2024-03-07T08:50:13;1.50;99.90
52381;DHT22;38310;52.796;6.942;2024-03-07T08:52:40;2.10;99.90
52381;DHT22;38310;52.796;6.942;2024-03-07T08:55:09;1.60;99.90
52381;DHT22;38310;52.796;6.942;2024-03-07T08:57:37;1.70;99.90
52381;DHT22;38310;52.796;6.942;2024-03-07T09:00:04;1.60;99.90
52381;DHT22;38310;52.796;6.942;2024-03-07T09:02:38;1.70;99.90
52381;DHT22;38310;52.796;6.942;2024-03-07T09:05:05;1.70;99.90
52381;DHT22;38310;52.796;6.942;2024-03-07T09:07:32;1.80;99.90
52381;DHT22;38310;52.796;6.942;2024-03-07T09:09:58;1.90;99.90
52381;DHT22;38310;52.796;6.942;2024-03-07T09:12:24;2.00;99.90
52381;DHT22;38310;52.796;6.942;2024-03-07T09:14:53;2.10;99.90
52381;DHT22;38310;52.796;6.942;2024-03-07T09:17:20;2.20;99.90
52381;DHT22;38310;52.796;6.942;2024-03-07T09:19:46;2.30;99.90
52381;DHT22;38310;52.796;6.942;2024-03-07T09:22:11;2.40;99.90
52381;DHT22;38310;52.796;6.942;2024-03-07T09:24:37;2.50;99.90
52381;DHT22;38310;52.796;6.942;2024-03-07T09:27:03;2.60;99.90
52381;DHT22;38310;52.796;6.942;2024-03-07T09:29:30;2.70;99.90
52381;DHT22;38310;52.796;6.942;2024-03-07T09:31:56;2.90;99.90
52381;DHT22;38310;52.796;6.942;2024-03-07T09:34:23;3.00;99.90
52381;DHT22;38310;52.796;6.942;2024-03-07T09:36:50;3.10;99.90
52381;DHT22;38310;52.796;6.942;2024-03-07T09:39:17;3.20;99.90
52381;DHT22;38310;52.796;6.942;2024-03-07T09:41:43;3.30;99.90
52381;DHT22;38310;52.796;6.942;2024-03-07T09:44:09;3.60;99.90
52381;DHT22;38310;52.796;6.942;2024-03-07T09:46:38;4.70;99.90
52381;DHT22;38310;52.796;6.942;2024-03-07T09:49:04;3.70;99.90
52381;DHT22;38310;52.796;6.942;2024-03-07T09:51:31;3.70;99.90
52381;DHT22;38310;52.796;6.942;2024-03-07T09:53:59;3.90;99.90
52381;DHT22;38310;52.796;6.942;2024-03-07T09:56:27;4.70;99.90
52381;DHT22;38310;52.796;6.942;2024-03-07T09:58:57;3.90;99.90
52381;DHT22;38310;52.796;6.942;2024-03-07T10:01:26;4.10;99.90
52381;DHT22;38310;52.796;6.942;2024-03-07T10:04:00;4.10;99.90
52381;DHT22;38310;52.796;6.942;2024-03-07T10:06:36;3.60;99.90
52381;DHT22;38310;52.796;6.942;2024-03-07T10:09:02;4.40;99.90
52381;DHT22;38310;52.796;6.942;2024-03-07T10:11:29;4.50;99.90
52381;DHT22;38310;52.796;6.942;2024-03-07T10:13:55;4.70;99.90
52381;DHT22;38310;52.796;6.942;2024-03-07T10:16:21;4.80;99.90
52381;DHT22;38310;52.796;6.942;2024-03-07T10:18:48;4.90;99.90
52381;DHT22;38310;52.796;6.942;2024-03-07T10:21:19;5.00;99.90
52381;DHT22;38310;52.796;6.942;2024-03-07T10:23:45;5.10;99.90
52381;DHT22;38310;52.796;6.942;2024-03-07T10:26:11;5.10;99.90
52381;DHT22;38310;52.796;6.942;2024-03-07T10:28:38;5.30;99.90
52381;DHT22;38310;52.796;6.942;2024-03-07T10:31:04;5.40;99.90
52381;DHT22;38310;52.796;6.942;2024-03-07T10:33:37;5.50;99.90
52381;DHT22;38310;52.796;6.942;2024-03-07T10:36:04;5.60;99.90
52381;DHT22;38310;52.796;6.942;2024-03-07T10:38:30;5.60;99.90
52381;DHT22;38310;52.796;6.942;2024-03-07T10:40:56;5.70;99.90
52381;DHT22;38310;52.796;6.942;2024-03-07T10:43:26;5.80;99.90
52381;DHT22;38310;52.796;6.942;2024-03-07T10:45:57;5.90;99.90
52381;DHT22;38310;52.796;6.942;2024-03-07T10:48:29;5.90;99.90
52381;DHT22;38310;52.796;6.942;2024-03-07T10:51:21;5.90;99.90
52381;DHT22;38310;52.796;6.942;2024-03-07T10:54:05;5.90;99.90
52381;DHT22;38310;52.796;6.942;2024-03-07T10:57:03;5.30;99.90
52381;DHT22;38310;52.796;6.942;2024-03-07T10:59:37;5.90;99.90
52381;DHT22;38310;52.796;6.942;2024-03-07T11:02:18;5.90;99.90
52381;DHT22;38310;52.796;6.942;2024-03-07T11:04:48;5.80;99.90
52381;DHT22;38310;52.796;6.942;2024-03-07T11:07:15;5.80;99.90
52381;DHT22;38310;52.796;6.942;2024-03-07T11:09:43;6.00;99.90
52381;DHT22;38310;52.796;6.942;2024-03-07T11:12:11;6.20;99.90
52381;DHT22;38310;52.796;6.942;2024-03-07T11:14:38;6.60;99.90
52381;DHT22;38310;52.796;6.942;2024-03-07T11:17:05;6.70;99.90
52381;DHT22;38310;52.796;6.942;2024-03-07T11:19:32;6.90;99.90
52381;DHT22;38310;52.796;6.942;2024-03-07T11:22:02;6.90;99.90
52381;DHT22;38310;52.796;6.942;2024-03-07T11:24:39;6.90;99.90
52381;DHT22;38310;52.796;6.942;2024-03-07T11:27:11;7.00;99.90
52381;DHT22;38310;52.796;6.942;2024-03-07T11:29:46;7.00;99.90
52381;DHT22;38310;52.796;6.942;2024-03-07T11:32:15;6.90;99.90
52381;DHT22;38310;52.796;6.942;2024-03-07T11:34:43;6.90;99.90
52381;DHT22;38310;52.796;6.942;2024-03-07T11:37:17;6.90;99.90
52381;DHT22;38310;52.796;6.942;2024-03-07T11:39:44;6.90;99.90
52381;DHT22;38310;52.796;6.942;2024-03-07T11:42:28;7.00;99.90
52381;DHT22;38310;52.796;6.942;2024-03-07T11:44:56;6.90;99.90
52381;DHT22;38310;52.796;6.942;2024-03-07T11:47:25;6.90;99.90
52381;DHT22;38310;52.796;6.942;2024-03-07T11:49:55;6.70;99.90
52381;DHT22;38310;52.796;6.942;2024-03-07T11:52:24;6.70;99.90
52381;DHT22;38310;52.796;6.942;2024-03-07T11:54:50;6.60;99.90
52381;DHT22;38310;52.796;6.942;2024-03-07T11:57:18;6.40;99.90
52381;DHT22;38310;52.796;6.942;2024-03-07T11:59:58;6.40;99.90
52381;DHT22;38310;52.796;6.942;2024-03-07T12:02:27;6.30;99.90
52381;DHT22;38310;52.796;6.942;2024-03-07T12:04:54;6.30;99.90
52381;DHT22;38310;52.796;6.942;2024-03-07T12:07:20;6.20;99.90
52381;DHT22;38310;52.796;6.942;2024-03-07T12:09:49;6.10;99.90
52381;DHT22;38310;52.796;6.942;2024-03-07T12:12:22;6.70;99.90
52381;DHT22;38310;52.796;6.942;2024-03-07T12:14:50;6.10;99.90
52381;DHT22;38310;52.796;6.942;2024-03-07T12:17:22;6.10;99.90
52381;DHT22;38310;52.796;6.942;2024-03-07T12:19:49;6.20;99.90
52381;DHT22;38310;52.796;6.942;2024-03-07T12:22:21;6.30;99.90
52381;DHT22;38310;52.796;6.942;2024-03-07T12:25:02;6.30;99.90
52381;DHT22;38310;52.796;6.942;2024-03-07T12:27:28;6.40;99.90
52381;DHT22;38310;52.796;6.942;2024-03-07T12:29:55;6.40;99.90
52381;DHT22;38310;52.796;6.942;2024-03-07T12:32:21;6.40;99.90
52381;DHT22;38310;52.796;6.942;2024-03-07T12:34:47;6.40;99.90
52381;DHT22;38310;52.796;6.942;2024-03-07T12:37:13;6.50;99.90
52381;DHT22;38310;52.796;6.942;2024-03-07T12:39:44;6.50;99.90
52381;DHT22;38310;52.796;6.942;2024-03-07T12:42:15;6.50;99.90
52381;DHT22;38310;52.796;6.942;2024-03-07T12:44:43;6.50;99.90
52381;DHT22;38310;52.796;6.942;2024-03-07T12:47:15;6.50;99.90
52381;DHT22;38310;52.796;6.942;2024-03-07T12:49:44;6.40;99.90
52381;DHT22;38310;52.796;6.942;2024-03-07T12:52:14;6.50;99.90
52381;DHT22;38310;52.796;6.942;2024-03-07T12:54:41;6.50;99.90
52381;DHT22;38310;52.796;6.942;2024-03-07T12:57:08;6.50;99.90
52381;DHT22;38310;52.796;6.942;2024-03-07T12:59:38;6.50;99.90
52381;DHT22;38310;52.796;6.942;2024-03-07T13:02:12;6.50;99.90
52381;DHT22;38310;52.796;6.942;2024-03-07T13:04:38;6.50;99.90
52381;DHT22;38310;52.796;6.942;2024-03-07T13:07:05;6.50;99.90
52381;DHT22;38310;52.796;6.942;2024-03-07T13:09:34;6.50;99.90
52381;DHT22;38310;52.796;6.942;2024-03-07T13:12:00;6.50;99.90
52381;DHT22;38310;52.796;6.942;2024-03-07T13:14:27;6.50;99.90
52381;DHT22;38310;52.796;6.942;2024-03-07T13:17:07;6.50;99.90
52381;DHT22;38310;52.796;6.942;2024-03-07T13:19:33;6.50;99.90
52381;DHT22;38310;52.796;6.942;2024-03-07T13:21:59;6.60;99.90
52381;DHT22;38310;52.796;6.942;2024-03-07T13:24:27;8.10;99.90
52381;DHT22;38310;52.796;6.942;2024-03-07T13:26:53;7.00;99.90
52381;DHT22;38310;52.796;6.942;2024-03-07T13:29:19;7.20;99.90
52381;DHT22;38310;52.796;6.942;2024-03-07T13:31:52;7.40;99.90
52381;DHT22;38310;52.796;6.942;2024-03-07T13:34:20;7.40;99.90
52381;DHT22;38310;52.796;6.942;2024-03-07T13:36:46;7.30;99.90
52381;DHT22;38310;52.796;6.942;2024-03-07T13:39:13;7.30;99.90
52381;DHT22;38310;52.796;6.942;2024-03-07T13:41:43;7.30;99.90
52381;DHT22;38310;52.796;6.942;2024-03-07T13:44:09;7.20;99.90
52381;DHT22;38310;52.796;6.942;2024-03-07T13:46:36;7.20;99.90
52381;DHT22;38310;52.796;6.942;2024-03-07T13:49:03;7.20;99.90
52381;DHT22;38310;52.796;6.942;2024-03-07T13:51:42;7.20;99.90
52381;DHT22;38310;52.796;6.942;2024-03-07T13:54:19;7.00;99.90
52381;DHT22;38310;52.796;6.942;2024-03-07T14:20:10;6.70;99.90
52381;DHT22;38310;52.796;6.942;2024-03-07T14:31:00;6.60;99.90
52381;DHT22;38310;52.796;6.942;2024-03-07T14:36:38;6.50;99.90
52381;DHT22;38310;52.796;6.942;2024-03-07T14:39:06;6.60;99.90
52381;DHT22;38310;52.796;6.942;2024-03-07T14:44:23;6.70;99.90
52381;DHT22;38310;52.796;6.942;2024-03-07T14:46:54;6.70;99.90
52381;DHT22;38310;52.796;6.942;2024-03-07T14:49:21;6.70;99.90
52381;DHT22;38310;52.796;6.942;2024-03-07T14:51:48;6.70;99.90
52381;DHT22;38310;52.796;6.942;2024-03-07T14:54:16;6.80;99.90
52381;DHT22;38310;52.796;6.942;2024-03-07T14:56:42;7.80;99.90
52381;DHT22;38310;52.796;6.942;2024-03-07T14:59:08;6.80;99.90
52381;DHT22;38310;52.796;6.942;2024-03-07T15:01:34;6.90;99.90
52381;DHT22;38310;52.796;6.942;2024-03-07T15:04:04;6.90;99.90
52381;DHT22;38310;52.796;6.942;2024-03-07T15:06:36;7.70;99.90
52381;DHT22;38310;52.796;6.942;2024-03-07T15:09:02;6.90;99.90
52381;DHT22;38310;52.796;6.942;2024-03-07T15:11:34;6.90;99.90
52381;DHT22;38310;52.796;6.942;2024-03-07T15:14:01;6.90;99.90
52381;DHT22;38310;52.796;6.942;2024-03-07T15:16:30;6.90;99.90
52381;DHT22;38310;52.796;6.942;2024-03-07T15:19:07;6.90;99.90
52381;DHT22;38310;52.796;6.942;2024-03-07T15:21:34;6.90;99.90
52381;DHT22;38310;52.796;6.942;2024-03-07T15:24:00;7.00;99.90
52381;DHT22;38310;52.796;6.942;2024-03-07T15:26:27;7.00;99.90
52381;DHT22;38310;52.796;6.942;2024-03-07T15:28:53;7.00;99.90
52381;DHT22;38310;52.796;6.942;2024-03-07T15:31:26;7.00;99.90
52381;DHT22;38310;52.796;6.942;2024-03-07T15:33:53;7.00;99.90
52381;DHT22;38310;52.796;6.942;2024-03-07T15:36:19;7.60;99.90
52381;DHT22;38310;52.796;6.942;2024-03-07T15:38:47;6.90;99.90
52381;DHT22;38310;52.796;6.942;2024-03-07T15:41:13;6.90;99.90
52381;DHT22;38310;52.796;6.942;2024-03-07T15:43:40;6.90;99.90
52381;DHT22;38310;52.796;6.942;2024-03-07T15:46:10;6.90;99.90
52381;DHT22;38310;52.796;6.942;2024-03-07T15:48:37;6.90;99.90
52381;DHT22;38310;52.796;6.942;2024-03-07T15:51:04;6.70;99.90
52381;DHT22;38310;52.796;6.942;2024-03-07T15:53:30;6.70;99.90
52381;DHT22;38310;52.796;6.942;2024-03-07T15:56:00;6.60;99.90
52381;DHT22;38310;52.796;6.942;2024-03-07T15:58:26;6.00;99.90
52381;DHT22;38310;52.796;6.942;2024-03-07T16:00:51;6.60;99.90
52381;DHT22;38310;52.796;6.942;2024-03-07T16:03:18;6.50;99.90
52381;DHT22;38310;52.796;6.942;2024-03-07T16:05:44;6.50;99.90
52381;DHT22;38310;52.796;6.942;2024-03-07T16:08:11;6.40;99.90
52381;DHT22;38310;52.796;6.942;2024-03-07T16:10:39;6.50;99.90
52381;DHT22;38310;52.796;6.942;2024-03-07T16:13:09;6.40;99.90
52381;DHT22;38310;52.796;6.942;2024-03-07T16:15:38;6.40;99.90
52381;DHT22;38310;52.796;6.942;2024-03-07T16:18:05;6.40;99.90
52381;DHT22;38310;52.796;6.942;2024-03-07T16:20:32;6.40;99.90
52381;DHT22;38310;52.796;6.942;2024-03-07T16:23:02;6.30;99.90
52381;DHT22;38310;52.796;6.942;2024-03-07T16:25:34;6.30;99.90
52381;DHT22;38310;52.796;6.942;2024-03-07T16:28:05;6.20;99.90